sensor_id;sensor_type;location;lat;lon;timestamp;P1;durP1;ratioP1;P2;durP2;ratioP2
21281;SDS011;10800;53.096;18.328;2023-01-19T00:03:47;8.40;;;5.37;;
21281;SDS011;10800;53.096;18.328;2023-01-19T00:08:55;8.67;;;4.53;;
21281;SDS011;10800;53.096;18.328;2023-01-19T00:14:05;8.70;;;5.27;;
21281;SDS011;10800;53.096;18.328;2023-01-19T00:19:12;10.50;;;4.70;;
21281;SDS011;10800;53.096;18.328;2023-01-19T00:24:20;13.33;;;5.77;;
21281;SDS011;10800;53.096;18.328;2023-01-19T00:29:48;10.23;;;4.50;;
21281;SDS011;10800;53.096;18.328;2023-01-19T00:34:58;16.03;;;6.27;;
21281;SDS011;10800;53.096;18.328;2023-01-19T00:40:04;21.90;;;5.90;;
21281;SDS011;10800;53.096;18.328;2023-01-19T00:45:13;17.27;;;5.00;;
21281;SDS011;10800;53.096;18.328;2023-01-19T00:50:23;8.90;;;5.40;;
21281;SDS011;10800;53.096;18.328;2023-01-19T00:55:30;9.67;;;5.63;;
21281;SDS011;10800;53.096;18.328;2023-01-19T01:00:39;15.57;;;5.93;;
21281;SDS011;10800;53.096;18.328;2023-01-19T01:05:45;7.07;;;3.60;;
21281;SDS011;10800;53.096;18.328;2023-01-19T01:10:51;8.30;;;5.13;;
21281;SDS011;10800;53.096;18.328;2023-01-19T01:15:57;11.90;;;5.50;;
21281;SDS011;10800;53.096;18.328;2023-01-19T01:21:03;18.20;;;7.37;;
21281;SDS011;10800;53.096;18.328;2023-01-19T01:26:10;21.00;;;7.37;;
21281;SDS011;10800;53.096;18.328;2023-01-19T01:31:15;7.80;;;3.93;;
21281;SDS011;10800;53.096;18.328;2023-01-19T01:36:21;13.07;;;6.03;;
21281;SDS011;10800;53.096;18.328;2023-01-19T01:41:26;22.47;;;6.47;;
21281;SDS011;10800;53.096;18.328;2023-01-19T01:46:32;11.63;;;6.17;;
21281;SDS011;10800;53.096;18.328;2023-01-19T01:51:39;11.40;;;5.53;;
21281;SDS011;10800;53.096;18.328;2023-01-19T01:56:52;8.87;;;5.13;;
21281;SDS011;10800;53.096;18.328;2023-01-19T02:01:55;11.77;;;6.10;;
21281;SDS011;10800;53.096;18.328;2023-01-19T02:07:32;16.90;;;5.67;;
21281;SDS011;10800;53.096;18.328;2023-01-19T02:12:53;16.10;;;6.37;;
21281;SDS011;10800;53.096;18.328;2023-01-19T02:18:17;11.80;;;5.73;;
21281;SDS011;10800;53.096;18.328;2023-01-19T02:23:44;10.83;;;5.23;;
21281;SDS011;10800;53.096;18.328;2023-01-19T02:28:57;16.57;;;7.87;;
21281;SDS011;10800;53.096;18.328;2023-01-19T02:34:06;9.37;;;5.40;;
21281;SDS011;10800;53.096;18.328;2023-01-19T02:39:14;14.37;;;6.30;;
21281;SDS011;10800;53.096;18.328;2023-01-19T02:44:22;16.73;;;7.53;;
21281;SDS011;10800;53.096;18.328;2023-01-19T02:49:29;17.97;;;7.50;;
21281;SDS011;10800;53.096;18.328;2023-01-19T02:54:45;22.03;;;6.90;;
21281;SDS011;10800;53.096;18.328;2023-01-19T03:05:16;11.17;;;7.53;;
21281;SDS011;10800;53.096;18.328;2023-01-19T03:15:53;12.33;;;8.27;;
21281;SDS011;10800;53.096;18.328;2023-01-19T03:21:05;13.30;;;7.67;;
21281;SDS011;10800;53.096;18.328;2023-01-19T03:26:11;20.00;;;8.33;;
21281;SDS011;10800;53.096;18.328;2023-01-19T03:31:20;21.67;;;8.70;;
21281;SDS011;10800;53.096;18.328;2023-01-19T03:36:45;19.50;;;7.83;;
21281;SDS011;10800;53.096;18.328;2023-01-19T03:41:55;22.00;;;7.87;;
21281;SDS011;10800;53.096;18.328;2023-01-19T03:47:07;17.90;;;7.47;;
21281;SDS011;10800;53.096;18.328;2023-01-19T03:52:15;11.63;;;6.07;;
21281;SDS011;10800;53.096;18.328;2023-01-19T03:57:20;18.30;;;7.20;;
21281;SDS011;10800;53.096;18.328;2023-01-19T04:02:26;18.90;;;7.50;;
21281;SDS011;10800;53.096;18.328;2023-01-19T04:07:32;20.13;;;9.53;;
21281;SDS011;10800;53.096;18.328;2023-01-19T04:12:37;21.33;;;7.77;;
21281;SDS011;10800;53.096;18.328;2023-01-19T04:17:43;19.57;;;9.37;;
21281;SDS011;10800;53.096;18.328;2023-01-19T04:22:48;13.57;;;7.77;;
21281;SDS011;10800;53.096;18.328;2023-01-19T04:27:53;15.80;;;8.20;;
21281;SDS011;10800;53.096;18.328;2023-01-19T04:33:01;19.47;;;7.93;;
21281;SDS011;10800;53.096;18.328;2023-01-19T04:38:06;23.57;;;6.63;;
21281;SDS011;10800;53.096;18.328;2023-01-19T04:43:12;17.07;;;7.10;;
21281;SDS011;10800;53.096;18.328;2023-01-19T04:48:17;20.80;;;9.57;;
21281;SDS011;10800;53.096;18.328;2023-01-19T04:53:23;19.30;;;8.87;;
21281;SDS011;10800;53.096;18.328;2023-01-19T04:58:29;10.63;;;6.53;;
21281;SDS011;10800;53.096;18.328;2023-01-19T05:03:34;17.73;;;7.67;;
21281;SDS011;10800;53.096;18.328;2023-01-19T05:08:40;21.33;;;8.20;;
21281;SDS011;10800;53.096;18.328;2023-01-19T05:13:46;14.30;;;6.63;;
21281;SDS011;10800;53.096;18.328;2023-01-19T05:18:53;13.00;;;6.53;;
21281;SDS011;10800;53.096;18.328;2023-01-19T05:24:00;8.67;;;5.37;;
21281;SDS011;10800;53.096;18.328;2023-01-19T05:29:05;13.20;;;7.20;;
21281;SDS011;10800;53.096;18.328;2023-01-19T05:34:17;18.80;;;8.87;;
21281;SDS011;10800;53.096;18.328;2023-01-19T05:39:23;14.70;;;6.67;;
21281;SDS011;10800;53.096;18.328;2023-01-19T05:44:29;16.57;;;7.87;;
21281;SDS011;10800;53.096;18.328;2023-01-19T05:49:34;35.13;;;8.63;;
21281;SDS011;10800;53.096;18.328;2023-01-19T05:54:41;27.60;;;12.77;;
21281;SDS011;10800;53.096;18.328;2023-01-19T06:00:01;34.90;;;14.43;;
21281;SDS011;10800;53.096;18.328;2023-01-19T06:05:16;24.80;;;10.10;;
21281;SDS011;10800;53.096;18.328;2023-01-19T06:10:24;28.60;;;13.23;;
21281;SDS011;10800;53.096;18.328;2023-01-19T06:15:43;28.20;;;10.00;;
21281;SDS011;10800;53.096;18.328;2023-01-19T06:21:13;15.30;;;8.50;;
21281;SDS011;10800;53.096;18.328;2023-01-19T06:26:20;19.07;;;8.37;;
21281;SDS011;10800;53.096;18.328;2023-01-19T06:31:31;20.23;;;8.30;;
21281;SDS011;10800;53.096;18.328;2023-01-19T06:36:44;11.20;;;6.87;;
21281;SDS011;10800;53.096;18.328;2023-01-19T06:41:55;12.83;;;6.23;;
21281;SDS011;10800;53.096;18.328;2023-01-19T06:47:02;15.03;;;6.70;;
21281;SDS011;10800;53.096;18.328;2023-01-19T06:52:25;14.87;;;6.10;;
21281;SDS011;10800;53.096;18.328;2023-01-19T06:57:48;14.97;;;7.33;;
21281;SDS011;10800;53.096;18.328;2023-01-19T07:03:19;23.40;;;8.17;;
21281;SDS011;10800;53.096;18.328;2023-01-19T07:08:35;11.40;;;5.97;;
21281;SDS011;10800;53.096;18.328;2023-01-19T07:14:05;21.97;;;8.33;;
21281;SDS011;10800;53.096;18.328;2023-01-19T07:19:14;22.90;;;8.00;;
21281;SDS011;10800;53.096;18.328;2023-01-19T07:24:24;23.87;;;7.50;;
21281;SDS011;10800;53.096;18.328;2023-01-19T07:29:52;24.40;;;9.03;;
21281;SDS011;10800;53.096;18.328;2023-01-19T07:35:08;19.20;;;8.17;;
21281;SDS011;10800;53.096;18.328;2023-01-19T07:40:47;24.77;;;8.07;;
21281;SDS011;10800;53.096;18.328;2023-01-19T07:46:02;19.37;;;8.20;;
21281;SDS011;10800;53.096;18.328;2023-01-19T07:51:14;8.93;;;5.47;;
21281;SDS011;10800;53.096;18.328;2023-01-19T07:56:25;17.83;;;7.60;;
21281;SDS011;10800;53.096;18.328;2023-01-19T08:01:40;24.30;;;8.23;;
21281;SDS011;10800;53.096;18.328;2023-01-19T08:07:06;7.60;;;5.70;;
21281;SDS011;10800;53.096;18.328;2023-01-19T08:12:17;12.03;;;6.10;;
21281;SDS011;10800;53.096;18.328;2023-01-19T08:17:37;18.43;;;8.63;;
21281;SDS011;10800;53.096;18.328;2023-01-19T08:22:47;15.33;;;8.00;;
21281;SDS011;10800;53.096;18.328;2023-01-19T08:28:05;41.97;;;14.77;;
21281;SDS011;10800;53.096;18.328;2023-01-19T08:33:17;28.40;;;12.03;;
21281;SDS011;10800;53.096;18.328;2023-01-19T08:38:24;33.13;;;11.30;;
21281;SDS011;10800;53.096;18.328;2023-01-19T08:43:46;34.40;;;13.10;;
21281;SDS011;10800;53.096;18.328;2023-01-19T08:49:12;31.03;;;14.07;;
21281;SDS011;10800;53.096;18.328;2023-01-19T08:54:30;30.90;;;12.37;;
21281;SDS011;10800;53.096;18.328;2023-01-19T08:59:55;31.23;;;12.60;;
21281;SDS011;10800;53.096;18.328;2023-01-19T09:05:08;16.43;;;9.03;;
21281;SDS011;10800;53.096;18.328;2023-01-19T09:10:34;32.13;;;11.27;;
21281;SDS011;10800;53.096;18.328;2023-01-19T09:15:45;32.00;;;14.37;;
21281;SDS011;10800;53.096;18.328;2023-01-19T09:20:56;29.83;;;17.27;;
21281;SDS011;10800;53.096;18.328;2023-01-19T09:26:16;55.00;;;23.63;;
21281;SDS011;10800;53.096;18.328;2023-01-19T09:31:29;36.23;;;18.77;;
21281;SDS011;10800;53.096;18.328;2023-01-19T09:36:45;29.03;;;14.27;;
21281;SDS011;10800;53.096;18.328;2023-01-19T09:41:56;30.83;;;11.83;;
21281;SDS011;10800;53.096;18.328;2023-01-19T09:47:33;59.37;;;25.13;;
21281;SDS011;10800;53.096;18.328;2023-01-19T09:52:57;21.63;;;12.87;;
21281;SDS011;10800;53.096;18.328;2023-01-19T09:58:29;36.97;;;15.73;;
21281;SDS011;10800;53.096;18.328;2023-01-19T10:03:40;42.57;;;14.43;;
21281;SDS011;10800;53.096;18.328;2023-01-19T10:09:14;24.33;;;11.90;;
21281;SDS011;10800;53.096;18.328;2023-01-19T10:19:48;36.73;;;13.93;;
21281;SDS011;10800;53.096;18.328;2023-01-19T10:24:59;42.77;;;15.90;;
21281;SDS011;10800;53.096;18.328;2023-01-19T10:30:17;39.03;;;14.40;;
21281;SDS011;10800;53.096;18.328;2023-01-19T10:35:29;33.27;;;13.97;;
21281;SDS011;10800;53.096;18.328;2023-01-19T10:41:00;34.53;;;15.03;;
21281;SDS011;10800;53.096;18.328;2023-01-19T10:46:31;28.93;;;11.63;;
21281;SDS011;10800;53.096;18.328;2023-01-19T10:51:45;30.07;;;12.27;;
21281;SDS011;10800;53.096;18.328;2023-01-19T10:56:59;26.33;;;11.30;;
21281;SDS011;10800;53.096;18.328;2023-01-19T11:07:35;36.47;;;16.37;;
21281;SDS011;10800;53.096;18.328;2023-01-19T11:13:01;31.17;;;11.90;;
21281;SDS011;10800;53.096;18.328;2023-01-19T11:24:24;37.67;;;14.70;;
21281;SDS011;10800;53.096;18.328;2023-01-19T11:35:41;44.07;;;10.67;;
21281;SDS011;10800;53.096;18.328;2023-01-19T11:41:20;39.80;;;12.07;;
21281;SDS011;10800;53.096;18.328;2023-01-19T11:47:10;23.80;;;11.47;;
21281;SDS011;10800;53.096;18.328;2023-01-19T11:57:42;23.67;;;11.77;;
21281;SDS011;10800;53.096;18.328;2023-01-19T12:03:00;30.93;;;11.87;;
21281;SDS011;10800;53.096;18.328;2023-01-19T12:08:55;32.97;;;13.07;;
21281;SDS011;10800;53.096;18.328;2023-01-19T12:14:27;38.30;;;12.87;;
21281;SDS011;10800;53.096;18.328;2023-01-19T12:19:52;32.10;;;11.73;;
21281;SDS011;10800;53.096;18.328;2023-01-19T12:30:41;40.13;;;12.90;;
21281;SDS011;10800;53.096;18.328;2023-01-19T12:41:34;37.93;;;13.37;;
21281;SDS011;10800;53.096;18.328;2023-01-19T12:47:16;35.97;;;14.10;;
21281;SDS011;10800;53.096;18.328;2023-01-19T12:52:40;38.73;;;14.50;;
21281;SDS011;10800;53.096;18.328;2023-01-19T12:58:07;43.70;;;13.80;;
21281;SDS011;10800;53.096;18.328;2023-01-19T13:09:00;44.97;;;13.70;;
21281;SDS011;10800;53.096;18.328;2023-01-19T13:19:49;48.57;;;13.30;;
21281;SDS011;10800;53.096;18.328;2023-01-19T13:25:27;40.60;;;14.40;;
21281;SDS011;10800;53.096;18.328;2023-01-19T13:42:55;61.10;;;22.97;;
21281;SDS011;10800;53.096;18.328;2023-01-19T13:53:16;35.67;;;13.63;;
21281;SDS011;10800;53.096;18.328;2023-01-19T13:58:39;34.43;;;12.37;;
21281;SDS011;10800;53.096;18.328;2023-01-19T14:03:58;30.13;;;10.83;;
21281;SDS011;10800;53.096;18.328;2023-01-19T14:09:19;33.10;;;12.00;;
21281;SDS011;10800;53.096;18.328;2023-01-19T14:14:31;25.83;;;11.10;;
21281;SDS011;10800;53.096;18.328;2023-01-19T14:19:52;45.87;;;12.33;;
21281;SDS011;10800;53.096;18.328;2023-01-19T14:25:35;32.17;;;11.63;;
21281;SDS011;10800;53.096;18.328;2023-01-19T14:30:35;54.13;;;12.13;;
21281;SDS011;10800;53.096;18.328;2023-01-19T14:41:46;26.73;;;12.07;;
21281;SDS011;10800;53.096;18.328;2023-01-19T14:47:15;39.50;;;14.30;;
21281;SDS011;10800;53.096;18.328;2023-01-19T14:52:47;38.97;;;11.73;;
21281;SDS011;10800;53.096;18.328;2023-01-19T14:58:39;36.20;;;14.47;;
21281;SDS011;10800;53.096;18.328;2023-01-19T15:04:13;38.47;;;11.40;;
21281;SDS011;10800;53.096;18.328;2023-01-19T15:10:14;28.03;;;10.73;;
21281;SDS011;10800;53.096;18.328;2023-01-19T15:16:13;22.53;;;10.13;;
21281;SDS011;10800;53.096;18.328;2023-01-19T15:21:26;28.40;;;10.07;;
21281;SDS011;10800;53.096;18.328;2023-01-19T15:26:39;26.97;;;10.73;;
21281;SDS011;10800;53.096;18.328;2023-01-19T15:31:52;34.17;;;10.93;;
21281;SDS011;10800;53.096;18.328;2023-01-19T15:37:16;26.70;;;12.03;;
21281;SDS011;10800;53.096;18.328;2023-01-19T15:42:46;27.73;;;10.93;;
21281;SDS011;10800;53.096;18.328;2023-01-19T15:48:18;25.87;;;12.03;;
21281;SDS011;10800;53.096;18.328;2023-01-19T15:53:34;42.20;;;12.70;;
21281;SDS011;10800;53.096;18.328;2023-01-19T15:59:05;41.43;;;12.73;;
21281;SDS011;10800;53.096;18.328;2023-01-19T16:04:29;28.63;;;12.10;;
21281;SDS011;10800;53.096;18.328;2023-01-19T16:09:45;47.83;;;16.83;;
21281;SDS011;10800;53.096;18.328;2023-01-19T16:15:02;59.77;;;20.80;;
21281;SDS011;10800;53.096;18.328;2023-01-19T16:20:45;49.60;;;18.37;;
21281;SDS011;10800;53.096;18.328;2023-01-19T16:37:31;32.23;;;13.03;;
21281;SDS011;10800;53.096;18.328;2023-01-19T16:48:51;35.97;;;14.43;;
21281;SDS011;10800;53.096;18.328;2023-01-19T16:54:06;38.27;;;14.17;;
21281;SDS011;10800;53.096;18.328;2023-01-19T16:59:19;50.60;;;14.43;;
21281;SDS011;10800;53.096;18.328;2023-01-19T17:05:07;39.80;;;14.30;;
21281;SDS011;10800;53.096;18.328;2023-01-19T17:10:40;35.17;;;15.00;;
21281;SDS011;10800;53.096;18.328;2023-01-19T17:15:58;34.83;;;13.87;;
21281;SDS011;10800;53.096;18.328;2023-01-19T17:27:00;29.27;;;12.77;;
21281;SDS011;10800;53.096;18.328;2023-01-19T17:32:57;47.83;;;15.37;;
21281;SDS011;10800;53.096;18.328;2023-01-19T17:38:43;35.47;;;14.80;;
21281;SDS011;10800;53.096;18.328;2023-01-19T17:49:43;54.57;;;14.83;;
21281;SDS011;10800;53.096;18.328;2023-01-19T17:54:52;37.53;;;15.77;;
21281;SDS011;10800;53.096;18.328;2023-01-19T17:59:58;55.40;;;18.70;;
21281;SDS011;10800;53.096;18.328;2023-01-19T18:05:03;58.53;;;20.60;;
21281;SDS011;10800;53.096;18.328;2023-01-19T18:10:14;67.40;;;22.20;;
21281;SDS011;10800;53.096;18.328;2023-01-19T18:15:20;60.63;;;23.43;;
21281;SDS011;10800;53.096;18.328;2023-01-19T18:20:25;57.97;;;22.43;;
21281;SDS011;10800;53.096;18.328;2023-01-19T18:25:32;50.13;;;18.00;;
21281;SDS011;10800;53.096;18.328;2023-01-19T18:30:43;34.70;;;13.77;;
21281;SDS011;10800;53.096;18.328;2023-01-19T18:36:13;41.80;;;14.67;;
21281;SDS011;10800;53.096;18.328;2023-01-19T18:41:22;41.77;;;14.47;;
21281;SDS011;10800;53.096;18.328;2023-01-19T18:46:27;42.73;;;13.87;;
21281;SDS011;10800;53.096;18.328;2023-01-19T18:52:14;22.47;;;11.67;;
21281;SDS011;10800;53.096;18.328;2023-01-19T18:57:24;35.93;;;13.23;;
21281;SDS011;10800;53.096;18.328;2023-01-19T19:02:37;31.03;;;11.37;;
21281;SDS011;10800;53.096;18.328;2023-01-19T19:07:51;33.90;;;13.10;;
21281;SDS011;10800;53.096;18.328;2023-01-19T19:13:20;49.27;;;16.20;;
21281;SDS011;10800;53.096;18.328;2023-01-19T19:18:33;66.17;;;22.83;;
21281;SDS011;10800;53.096;18.328;2023-01-19T19:23:42;88.23;;;22.73;;
21281;SDS011;10800;53.096;18.328;2023-01-19T19:28:49;45.37;;;16.97;;
21281;SDS011;10800;53.096;18.328;2023-01-19T19:34:00;35.63;;;13.90;;
21281;SDS011;10800;53.096;18.328;2023-01-19T19:39:07;31.90;;;10.67;;
21281;SDS011;10800;53.096;18.328;2023-01-19T19:44:21;30.87;;;11.97;;
21281;SDS011;10800;53.096;18.328;2023-01-19T19:49:50;28.87;;;11.13;;
21281;SDS011;10800;53.096;18.328;2023-01-19T19:55:20;25.87;;;10.53;;
21281;SDS011;10800;53.096;18.328;2023-01-19T20:00:23;35.80;;;9.67;;
21281;SDS011;10800;53.096;18.328;2023-01-19T20:05:31;25.93;;;7.87;;
21281;SDS011;10800;53.096;18.328;2023-01-19T20:10:39;19.67;;;8.77;;
21281;SDS011;10800;53.096;18.328;2023-01-19T20:21:15;20.80;;;8.23;;
21281;SDS011;10800;53.096;18.328;2023-01-19T20:26:29;25.67;;;8.37;;
21281;SDS011;10800;53.096;18.328;2023-01-19T20:31:38;16.20;;;7.30;;
21281;SDS011;10800;53.096;18.328;2023-01-19T20:36:45;28.43;;;7.73;;
21281;SDS011;10800;53.096;18.328;2023-01-19T20:41:53;14.80;;;6.70;;
21281;SDS011;10800;53.096;18.328;2023-01-19T20:46:59;15.53;;;7.90;;
21281;SDS011;10800;53.096;18.328;2023-01-19T20:52:18;12.77;;;4.80;;
21281;SDS011;10800;53.096;18.328;2023-01-19T20:58:13;21.03;;;9.13;;
21281;SDS011;10800;53.096;18.328;2023-01-19T21:03:30;16.63;;;6.43;;
21281;SDS011;10800;53.096;18.328;2023-01-19T21:14:50;13.30;;;6.30;;
21281;SDS011;10800;53.096;18.328;2023-01-19T21:20:31;19.63;;;6.13;;
21281;SDS011;10800;53.096;18.328;2023-01-19T21:25:37;18.20;;;7.37;;
21281;SDS011;10800;53.096;18.328;2023-01-19T21:30:42;8.30;;;4.60;;
21281;SDS011;10800;53.096;18.328;2023-01-19T21:35:52;12.73;;;5.70;;
21281;SDS011;10800;53.096;18.328;2023-01-19T21:41:03;29.50;;;10.27;;
21281;SDS011;10800;53.096;18.328;2023-01-19T21:46:11;11.03;;;5.23;;
21281;SDS011;10800;53.096;18.328;2023-01-19T21:51:18;9.97;;;4.33;;
21281;SDS011;10800;53.096;18.328;2023-01-19T21:56:24;8.37;;;5.03;;
21281;SDS011;10800;53.096;18.328;2023-01-19T22:01:31;15.70;;;3.87;;
21281;SDS011;10800;53.096;18.328;2023-01-19T22:06:37;14.60;;;4.47;;
21281;SDS011;10800;53.096;18.328;2023-01-19T22:11:43;17.20;;;5.93;;
21281;SDS011;10800;53.096;18.328;2023-01-19T22:16:48;10.83;;;4.13;;
21281;SDS011;10800;53.096;18.328;2023-01-19T22:21:54;20.97;;;7.37;;
21281;SDS011;10800;53.096;18.328;2023-01-19T22:27:00;14.27;;;4.30;;
21281;SDS011;10800;53.096;18.328;2023-01-19T22:32:05;15.83;;;5.63;;
21281;SDS011;10800;53.096;18.328;2023-01-19T22:37:11;9.63;;;4.43;;
21281;SDS011;10800;53.096;18.328;2023-01-19T22:42:16;10.13;;;4.43;;
21281;SDS011;10800;53.096;18.328;2023-01-19T22:47:22;7.20;;;4.13;;
21281;SDS011;10800;53.096;18.328;2023-01-19T22:52:27;14.63;;;5.97;;
21281;SDS011;10800;53.096;18.328;2023-01-19T22:57:33;11.57;;;6.43;;
21281;SDS011;10800;53.096;18.328;2023-01-19T23:02:39;15.93;;;7.03;;
21281;SDS011;10800;53.096;18.328;2023-01-19T23:07:45;34.00;;;10.30;;
21281;SDS011;10800;53.096;18.328;2023-01-19T23:12:51;10.73;;;5.70;;
21281;SDS011;10800;53.096;18.328;2023-01-19T23:17:56;18.77;;;6.30;;
21281;SDS011;10800;53.096;18.328;2023-01-19T23:23:01;19.90;;;6.57;;
21281;SDS011;10800;53.096;18.328;2023-01-19T23:28:07;12.23;;;4.57;;
21281;SDS011;10800;53.096;18.328;2023-01-19T23:33:13;11.30;;;4.70;;
21281;SDS011;10800;53.096;18.328;2023-01-19T23:38:18;17.10;;;7.07;;
21281;SDS011;10800;53.096;18.328;2023-01-19T23:43:25;18.47;;;6.57;;
21281;SDS011;10800;53.096;18.328;2023-01-19T23:48:31;14.23;;;8.43;;
21281;SDS011;10800;53.096;18.328;2023-01-19T23:53:37;20.27;;;7.10;;
21281;SDS011;10800;53.096;18.328;2023-01-19T23:58:50;12.27;;;6.20;;
